Time;durP1;ratioP1;P1;durP2;ratioP2;P2;SDS_P1;SDS_P2;PMS_P1;PMS_P2;Temp;Humidity;BMP_temperature;BMP_pressure;BME280_temperature;BME280_humidity;BME280_pressure;Samples;Min_cycle;Max_cycle;Signal;HPM_P1;HPM_P2
2023/07/18 00:00:17;;;;;;;9.10;5.28;;;;;;;15.15;92.74;101454.78;4958413;28;20116;-80
2023/07/18 00:02:44;;;;;;;7.25;5.13;;;;;;;15.13;92.85;101462.03;4960137;28;20236;-81
2023/07/18 00:05:12;;;;;;;8.57;4.95;;;;;;;14.97;92.79;101465.50;4958417;28;20054;-80
2023/07/18 00:07:41;;;;;;;9.10;5.55;;;;;;;14.92;93.75;101460.72;4960493;28;20067;-80
2023/07/18 00:10:09;;;;;;;8.05;5.05;;;;;;;14.86;94.14;101461.38;4959016;28;20154;-79
2023/07/18 00:12:36;;;;;;;8.95;5.50;;;;;;;14.85;94.95;101467.63;4958896;28;20099;-80
2023/07/18 00:15:05;;;;;;;10.48;5.50;;;;;;;14.85;95.43;101465.00;4957235;28;20143;-81
2023/07/18 00:17:33;;;;;;;9.05;5.30;;;;;;;14.89;95.79;101468.13;4958742;29;20134;-79
2023/07/18 00:20:00;;;;;;;9.52;5.25;;;;;;;14.86;96.05;101471.91;4959758;28;20051;-79
2023/07/18 00:22:26;;;;;;;15.95;5.97;;;;;;;14.84;96.24;101473.91;4959480;28;20053;-80
2023/07/18 00:24:54;;;;;;;8.70;5.82;;;;;;;14.79;96.40;101460.38;4959698;28;20058;-79
2023/07/18 00:27:21;;;;;;;7.32;5.40;;;;;;;14.79;96.63;101465.66;4959195;28;20130;-80
2023/07/18 00:29:48;;;;;;;14.10;6.35;;;;;;;14.72;96.18;101469.09;4958594;28;20487;-82
2023/07/18 00:32:15;;;;;;;10.43;5.47;;;;;;;14.74;96.20;101464.50;4957798;28;20050;-82
2023/07/18 00:34:44;;;;;;;14.55;5.75;;;;;;;14.74;97.27;101467.94;4958555;28;20051;-83
2023/07/18 00:37:11;;;;;;;8.85;5.82;;;;;;;14.69;97.13;101470.25;4958647;28;20055;-81
2023/07/18 00:39:38;;;;;;;8.95;5.40;;;;;;;14.64;97.55;101462.03;4957941;28;20574;-81
2023/07/18 00:42:07;;;;;;;8.18;5.47;;;;;;;14.56;97.34;101459.38;4958239;28;20122;-81
2023/07/18 00:44:33;;;;;;;10.93;6.15;;;;;;;14.54;97.04;101456.91;4958908;28;20138;-81
2023/07/18 00:47:01;;;;;;;10.27;6.22;;;;;;;14.38;97.29;101466.53;4958572;28;20059;-79
2023/07/18 00:49:28;;;;;;;8.13;5.50;;;;;;;14.27;97.67;101460.56;4958340;28;20083;-82
2023/07/18 00:51:55;;;;;;;9.80;6.22;;;;;;;14.23;98.13;101451.34;4959086;28;20047;-81
2023/07/18 00:54:22;;;;;;;8.40;4.88;;;;;;;14.25;98.65;101459.09;4959317;28;20596;-81
2023/07/18 00:59:20;;;;;;;9.18;5.60;;;;;;;14.09;98.90;101456.41;4952072;29;20066;-78
2023/07/18 01:01:47;;;;;;;12.25;5.85;;;;;;;14.00;99.23;101455.56;4967503;28;20138;-78
2023/07/18 01:04:14;;;;;;;12.30;5.55;;;;;;;14.09;99.44;101451.97;4964630;28;20047;-78
2023/07/18 01:06:42;;;;;;;9.50;5.85;;;;;;;14.05;99.53;101445.38;4957638;29;20066;-78
2023/07/18 01:09:09;;;;;;;10.23;5.88;;;;;;;13.99;99.68;101456.53;4958923;29;20491;-78
2023/07/18 01:11:36;;;;;;;9.48;6.47;;;;;;;13.98;99.86;101443.53;4956794;28;20135;-79
2023/07/18 01:14:03;;;;;;;12.15;6.15;;;;;;;13.95;99.97;101449.94;4954272;28;20051;-78
2023/07/18 01:16:31;;;;;;;9.65;6.10;;;;;;;13.95;100.00;101449.94;4954557;28;20070;-77
2023/07/18 01:18:58;;;;;;;12.60;5.75;;;;;;;13.90;100.00;101450.41;4957040;28;20083;-78
2023/07/18 01:21:27;;;;;;;10.32;5.70;;;;;;;13.63;100.00;101455.88;4954459;28;20138;-77
2023/07/18 01:23:54;;;;;;;11.20;5.93;;;;;;;13.70;100.00;101450.81;4956298;29;20137;-78
2023/07/18 01:26:21;;;;;;;10.35;5.93;;;;;;;13.73;100.00;101453.09;4959256;28;20078;-78
2023/07/18 01:28:48;;;;;;;10.30;6.45;;;;;;;13.74;100.00;101452.13;4958955;29;20133;-77
2023/07/18 01:31:14;;;;;;;12.73;6.97;;;;;;;13.79;100.00;101465.63;4959005;28;20138;-77
2023/07/18 01:33:43;;;;;;;11.00;6.57;;;;;;;13.84;100.00;101468.63;4958942;28;20055;-78
2023/07/18 01:36:10;;;;;;;11.40;6.10;;;;;;;13.84;100.00;101458.09;4951741;29;20048;-77
2023/07/18 01:38:38;;;;;;;11.95;6.93;;;;;;;13.56;100.00;101442.53;4957397;28;20496;-78
2023/07/18 01:41:07;;;;;;;13.38;7.30;;;;;;;13.50;100.00;101444.94;4957642;29;20152;-78
2023/07/18 01:43:34;;;;;;;11.45;6.18;;;;;;;13.62;100.00;101446.34;4958752;28;20059;-77
2023/07/18 01:46:01;;;;;;;12.52;6.65;;;;;;;13.54;100.00;101441.84;4957996;28;20090;-77
2023/07/18 01:48:28;;;;;;;20.10;6.65;;;;;;;13.52;100.00;101433.28;4957641;28;20055;-77
2023/07/18 01:50:55;;;;;;;16.20;6.32;;;;;;;13.51;100.00;101442.16;4957435;28;20134;-77
2023/07/18 01:53:21;;;;;;;11.73;6.68;;;;;;;13.51;100.00;101436.06;4956827;28;20085;-78
2023/07/18 01:55:49;;;;;;;10.05;6.15;;;;;;;13.49;100.00;101430.97;4956630;28;20053;-78
2023/07/18 01:58:16;;;;;;;13.35;6.60;;;;;;;13.45;100.00;101431.44;4956549;28;20094;-77
2023/07/18 02:00:42;;;;;;;14.15;6.85;;;;;;;13.53;100.00;101434.94;4955664;28;20051;-77
2023/07/18 02:03:09;;;;;;;12.40;6.50;;;;;;;13.53;100.00;101431.50;4957264;28;20485;-78
2023/07/18 02:05:36;;;;;;;10.57;6.53;;;;;;;13.50;100.00;101443.13;4956401;28;20205;-77
2023/07/18 02:08:02;;;;;;;13.68;6.60;;;;;;;13.58;100.00;101443.19;4955855;28;20127;-78
2023/07/18 02:10:29;;;;;;;13.43;6.95;;;;;;;13.57;100.00;101449.44;4955975;28;20090;-78
2023/07/18 02:13:01;;;;;;;9.60;6.50;;;;;;;13.63;100.00;101444.53;4955943;28;20463;-79
2023/07/18 02:15:28;;;;;;;8.10;6.40;;;;;;;13.59;100.00;101450.09;4956285;28;20122;-78
2023/07/18 02:17:55;;;;;;;11.63;6.50;;;;;;;13.54;100.00;101436.59;4956859;28;20493;-78
2023/07/18 02:20:22;;;;;;;9.77;6.20;;;;;;;13.56;100.00;101439.91;4957716;29;20519;-78
2023/07/18 02:22:50;;;;;;;15.73;6.65;;;;;;;13.49;100.00;101433.59;4959045;28;20227;-79
2023/07/18 02:25:17;;;;;;;14.43;6.13;;;;;;;13.52;100.00;101438.56;4957640;28;20452;-79
2023/07/18 02:27:44;;;;;;;12.63;6.57;;;;;;;13.40;100.00;101431.91;4956148;28;20166;-78
2023/07/18 02:30:13;;;;;;;13.38;6.35;;;;;;;13.35;100.00;101434.16;4957149;28;20098;-77
2023/07/18 02:32:40;;;;;;;12.98;6.53;;;;;;;13.18;100.00;101424.53;4956346;29;20094;-78
2023/07/18 02:35:08;;;;;;;11.52;6.70;;;;;;;13.07;100.00;101420.31;4950209;29;20091;-78
2023/07/18 02:37:34;;;;;;;9.10;6.40;;;;;;;13.09;100.00;101423.63;4958252;28;20051;-78
2023/07/18 02:40:04;;;;;;;11.20;6.30;;;;;;;13.09;100.00;101420.16;4959077;28;20134;-77
2023/07/18 02:42:33;;;;;;;11.45;6.30;;;;;;;13.14;100.00;101428.41;4959216;29;20051;-78
2023/07/18 02:45:00;;;;;;;11.88;6.40;;;;;;;13.15;100.00;101419.56;4958421;28;20078;-79
2023/07/18 02:47:28;;;;;;;12.73;7.00;;;;;;;13.20;100.00;101431.28;4959572;28;20047;-78
2023/07/18 02:49:55;;;;;;;8.88;6.55;;;;;;;13.16;100.00;101434.38;4958454;29;20090;-78
2023/07/18 02:52:21;;;;;;;11.10;6.47;;;;;;;13.12;100.00;101430.38;4955817;29;20479;-78
2023/07/18 02:54:50;;;;;;;13.45;7.05;;;;;;;13.03;100.00;101428.66;4957353;28;20051;-78
2023/07/18 02:57:17;;;;;;;12.98;6.55;;;;;;;12.87;100.00;101422.28;4955784;28;20052;-77
2023/07/18 02:59:44;;;;;;;9.30;6.90;;;;;;;12.88;100.00;101426.56;4957667;28;20047;-77
2023/07/18 03:02:10;;;;;;;11.35;6.90;;;;;;;12.87;100.00;101426.72;4957673;28;20110;-78
2023/07/18 03:04:38;;;;;;;13.32;7.55;;;;;;;12.84;100.00;101425.22;4956956;28;20047;-78
2023/07/18 03:07:07;;;;;;;11.63;7.32;;;;;;;12.87;100.00;101419.66;4958300;28;20137;-79
2023/07/18 03:09:34;;;;;;;11.88;6.80;;;;;;;12.92;100.00;101425.28;4958644;28;20141;-78
2023/07/18 03:12:01;;;;;;;8.88;6.78;;;;;;;12.82;100.00;101429.78;4957352;28;20141;-79
2023/07/18 03:14:29;;;;;;;11.25;6.63;;;;;;;12.74;100.00;101421.88;4956927;28;20055;-78
2023/07/18 03:16:55;;;;;;;15.35;6.95;;;;;;;12.69;100.00;101421.50;4956291;28;20068;-78
2023/07/18 03:19:22;;;;;;;13.00;6.85;;;;;;;12.75;100.00;101418.25;4956109;28;20061;-77
2023/07/18 03:21:50;;;;;;;8.48;6.38;;;;;;;12.81;100.00;101425.50;4956689;28;20142;-78
2023/07/18 03:24:17;;;;;;;12.32;7.10;;;;;;;12.81;100.00;101422.88;4956239;28;20089;-78
2023/07/18 03:26:43;;;;;;;11.32;6.40;;;;;;;12.79;100.00;101424.84;4955939;28;20131;-79
2023/07/18 03:29:10;;;;;;;10.57;6.53;;;;;;;12.83;100.00;101426.19;4954679;28;20058;-79
2023/07/18 03:31:39;;;;;;;12.57;6.80;;;;;;;12.74;100.00;101424.50;4955991;28;20315;-77
2023/07/18 03:34:06;;;;;;;9.32;6.07;;;;;;;12.75;100.00;101414.81;4956217;28;20118;-77
2023/07/18 03:36:33;;;;;;;8.80;6.45;;;;;;;12.73;100.00;101419.38;4955516;28;20043;-78
2023/07/18 03:39:01;;;;;;;11.73;6.30;;;;;;;12.75;100.00;101413.00;4956588;29;20043;-76
2023/07/18 03:41:27;;;;;;;14.00;7.40;;;;;;;12.77;100.00;101426.78;4955684;28;20137;-78
2023/07/18 03:43:54;;;;;;;10.10;6.70;;;;;;;12.73;100.00;101424.63;4954781;29;20206;-77
2023/07/18 03:46:21;;;;;;;9.85;6.72;;;;;;;12.70;100.00;101419.69;4954494;28;20066;-77
2023/07/18 03:48:48;;;;;;;10.82;6.38;;;;;;;12.78;100.00;101428.44;4954332;28;20514;-77
2023/07/18 03:51:15;;;;;;;9.45;6.10;;;;;;;12.74;100.00;101421.88;4954051;29;20134;-77
2023/07/18 03:53:41;;;;;;;10.23;5.72;;;;;;;12.78;100.00;101428.44;4955112;29;20047;-78
2023/07/18 03:56:09;;;;;;;12.63;6.32;;;;;;;12.75;100.00;101423.50;4946470;29;20081;-78
2023/07/18 03:58:36;;;;;;;11.43;6.15;;;;;;;12.66;100.00;101419.16;4953923;28;20051;-77
2023/07/18 04:01:12;;;;;;;9.73;6.60;;;;;;;12.68;100.00;101427.72;4953309;28;20480;-77
2023/07/18 04:03:41;;;;;;;13.07;7.18;;;;;;;12.68;100.00;101427.72;4955181;28;20195;-78
2023/07/18 04:06:08;;;;;;;12.98;6.85;;;;;;;12.87;100.00;101430.16;4956504;28;20051;-77
2023/07/18 04:08:35;;;;;;;11.43;6.10;;;;;;;13.45;100.00;101434.88;4955729;28;20055;-79
2023/07/18 04:11:02;;;;;;;10.43;6.30;;;;;;;13.96;100.00;101427.91;4955618;28;20587;-78
2023/07/18 04:13:30;;;;;;;10.15;6.00;;;;;;;14.61;97.32;101399.13;4956415;28;20503;-77
2023/07/18 04:15:56;;;;;;;7.57;5.78;;;;;;;14.76;93.77;101394.03;4953702;28;20071;-77
2023/07/18 04:18:23;;;;;;;9.32;5.32;;;;;;;15.27;90.58;101377.81;4953860;28;20055;-76
2023/07/18 04:20:50;;;;;;;9.00;5.55;;;;;;;15.50;88.64;101370.03;4953509;29;20149;-77
2023/07/18 04:23:18;;;;;;;9.55;5.13;;;;;;;15.29;87.22;101369.75;4953271;28;20130;-78
2023/07/18 04:25:59;;;;;;;11.18;5.43;;;;;;;14.72;87.97;101369.00;4949360;28;20051;-76
2023/07/18 04:28:27;;;;;;;9.30;5.18;;;;;;;14.36;89.65;101369.28;4952188;28;20051;-78
2023/07/18 04:30:55;;;;;;;9.90;5.70;;;;;;;14.12;91.28;101374.53;4951824;28;20212;-77
2023/07/18 04:33:22;;;;;;;9.02;5.28;;;;;;;14.68;90.63;101378.22;4952351;28;20049;-77
2023/07/18 04:35:48;;;;;;;9.10;5.50;;;;;;;15.53;87.67;101382.06;4952442;28;20486;-78
2023/07/18 04:38:15;;;;;;;8.50;5.20;;;;;;;15.04;86.94;101354.97;4952071;28;20138;-77
2023/07/18 04:40:42;;;;;;;10.18;5.93;;;;;;;14.92;87.84;101372.94;4951842;28;20364;-77
2023/07/18 04:43:08;;;;;;;9.65;5.78;;;;;;;15.06;88.19;101372.28;4951938;28;20139;-76
2023/07/18 04:45:42;;;;;;;8.68;5.30;;;;;;;15.05;87.97;101378.53;4951541;28;21783;-76
2023/07/18 04:48:10;;;;;;;12.68;5.70;;;;;;;14.93;88.62;101383.31;4944328;29;20137;-76
2023/07/18 04:50:38;;;;;;;12.57;5.75;;;;;;;15.28;88.70;101376.00;4952041;28;20421;-77
2023/07/18 04:53:05;;;;;;;12.10;6.05;;;;;;;15.56;88.31;101382.56;4952457;28;20058;-78
2023/07/18 04:55:34;;;;;;;9.70;5.32;;;;;;;15.67;87.42;101378.72;4951799;28;20134;-78
2023/07/18 04:58:01;;;;;;;9.98;6.20;;;;;;;15.00;88.60;101366.84;4951593;28;20081;-79
2023/07/18 05:00:29;;;;;;;9.45;6.05;;;;;;;15.17;89.06;101379.81;4950885;28;20050;-77
2023/07/18 05:02:55;;;;;;;13.18;5.55;;;;;;;15.52;89.03;101372.50;4952042;29;20459;-76
2023/07/18 05:05:23;;;;;;;9.93;5.70;;;;;;;15.97;87.11;101361.28;4951663;28;20062;-75
2023/07/18 05:07:50;;;;;;;11.00;5.43;;;;;;;16.17;85.48;101351.88;4951620;28;20073;-76
2023/07/18 05:10:17;;;;;;;9.77;5.32;;;;;;;16.39;84.14;101350.25;4950733;28;20188;-76
2023/07/18 05:12:45;;;;;;;10.10;5.18;;;;;;;16.44;83.67;101350.56;4951767;28;20506;-77
2023/07/18 05:15:12;;;;;;;8.55;4.97;;;;;;;16.51;83.06;101348.84;4951359;28;20110;-78
2023/07/18 05:17:38;;;;;;;9.43;5.10;;;;;;;16.28;82.47;101345.38;4952182;29;20129;-78
2023/07/18 05:20:07;;;;;;;10.90;5.70;;;;;;;16.34;82.62;101349.16;4950925;28;20055;-77
2023/07/18 05:22:35;;;;;;;10.13;5.78;;;;;;;15.91;84.46;101356.69;4952319;28;20499;-78
2023/07/18 05:25:02;;;;;;;9.02;5.25;;;;;;;16.31;84.69;101357.41;4952527;29;20079;-79
2023/07/18 05:27:28;;;;;;;9.02;5.22;;;;;;;17.45;81.61;101354.56;4951918;28;20126;-79
2023/07/18 05:29:56;;;;;;;9.57;5.00;;;;;;;18.89;78.10;101352.66;4952615;29;20401;-78
2023/07/18 05:32:24;;;;;;;11.45;5.57;;;;;;;19.52;74.38;101357.94;4954063;29;20047;-80
2023/07/18 05:34:54;;;;;;;11.65;5.10;;;;;;;20.62;72.37;101360.28;4956208;28;20044;-80
2023/07/18 05:37:21;;;;;;;9.38;5.03;;;;;;;21.35;68.56;101360.22;4954045;28;20534;-78
2023/07/18 05:39:56;;;;;;;10.68;5.00;;;;;;;21.59;66.63;101354.22;4951745;28;20149;-79
2023/07/18 05:48:47;;;;;;;7.45;4.82;;;;;;;21.80;64.51;101361.06;4948522;28;20047;-80
2023/07/18 05:54:39;;;;;;;10.57;4.55;;;;;;;23.08;61.55;101357.13;4938428;29;20090;-78
2023/07/18 06:08:57;;;;;;;8.32;4.07;;;;;;;24.81;57.21;101370.63;4950316;28;20555;-76
2023/07/18 06:18:07;;;;;;;6.13;4.15;;;;;;;25.07;55.63;101345.25;4955213;28;20051;-78
2023/07/18 06:23:50;;;;;;;7.35;4.07;;;;;;;25.48;54.52;101346.13;4873917;29;20053;-78
2023/07/18 06:26:17;;;;;;;5.90;3.95;;;;;;;25.60;53.47;101322.78;4875815;29;20057;-77
2023/07/18 06:28:43;;;;;;;8.73;3.63;;;;;;;26.26;52.75;101305.22;4890563;28;20134;-76
2023/07/18 06:31:12;;;;;;;7.75;3.80;;;;;;;25.65;53.57;101332.81;4954885;28;20066;-78
2023/07/18 06:33:39;;;;;;;5.55;3.85;;;;;;;25.55;53.43;101335.25;4955153;28;20062;-78
2023/07/18 06:36:06;;;;;;;10.60;4.00;;;;;;;25.50;52.89;101324.47;4955301;29;20138;-78
2023/07/18 06:38:33;;;;;;;11.55;4.10;;;;;;;26.27;51.85;101319.44;4955182;28;20497;-78
2023/07/18 06:41:00;;;;;;;5.72;3.42;;;;;;;26.50;52.69;101321.97;4954443;28;20134;-78
2023/07/18 06:43:27;;;;;;;9.63;4.20;;;;;;;26.91;50.88;101311.84;4955121;28;20225;-77
2023/07/18 06:45:54;;;;;;;9.07;3.97;;;;;;;26.85;50.99;101312.84;4954661;28;20054;-77
2023/07/18 06:48:22;;;;;;;6.05;3.75;;;;;;;25.57;53.04;101301.81;4954339;28;20455;-77
2023/07/18 06:50:50;;;;;;;9.05;3.80;;;;;;;26.99;51.37;101303.38;4954327;29;20051;-78
2023/07/18 06:53:18;;;;;;;8.02;3.85;;;;;;;26.63;51.76;101299.38;4954389;28;20047;-78
2023/07/18 06:55:46;;;;;;;6.85;3.63;;;;;;;26.92;50.88;101298.19;4953874;28;20078;-78
2023/07/18 06:58:19;;;;;;;11.55;3.95;;;;;;;26.26;51.50;101275.72;5006155;23;20114;-78
2023/07/18 07:00:48;;;;;;;8.60;3.65;;;;;;;27.76;50.46;101289.78;4959068;28;20058;-79
2023/07/18 07:03:18;;;;;;;8.02;3.70;;;;;;;28.47;47.96;101297.66;4959733;29;20070;-78
2023/07/18 07:05:46;;;;;;;7.55;3.50;;;;;;;27.25;48.97;101280.34;4963015;28;20047;-79
2023/07/18 07:08:13;;;;;;;6.60;3.83;;;;;;;26.33;50.19;101280.94;4961938;28;20074;-78
2023/07/18 07:10:43;;;;;;;6.35;4.18;;;;;;;27.18;50.88;101285.91;4960719;29;20051;-78
2023/07/18 07:13:10;;;;;;;7.72;3.55;;;;;;;28.28;48.37;101278.44;4959104;29;20133;-78
2023/07/18 07:15:40;;;;;;;5.65;3.47;;;;;;;26.95;48.79;101270.81;4957868;29;20055;-78
2023/07/18 07:18:17;;;;;;;7.35;3.88;;;;;;;28.16;47.74;101280.44;4958977;28;20074;-78
2023/07/18 07:20:53;;;;;;;7.15;3.95;;;;;;;27.59;47.62;101248.75;4958196;29;20146;-78
2023/07/18 07:23:43;;;;;;;8.85;3.70;;;;;;;28.56;47.00;101271.88;4964420;28;20158;-78
2023/07/18 07:26:10;;;;;;;9.23;4.10;;;;;;;28.76;46.28;101255.03;4973735;28;20119;-78
2023/07/18 07:28:38;;;;;;;8.93;4.00;;;;;;;27.56;47.19;101254.59;4958275;28;20138;-77
2023/07/18 07:31:05;;;;;;;6.80;3.80;;;;;;;28.24;46.32;101269.25;4958415;28;20550;-78
2023/07/18 07:33:38;;;;;;;7.18;3.50;;;;;;;28.38;46.95;101260.44;4961441;28;20051;-79
2023/07/18 07:36:09;;;;;;;6.75;3.58;;;;;;;28.71;47.36;101283.56;4969699;28;20070;-79
2023/07/18 07:38:37;;;;;;;6.38;3.83;;;;;;;28.56;46.15;101263.81;4957892;28;20051;-78
2023/07/18 07:41:05;;;;;;;7.63;3.75;;;;;;;27.78;47.91;101241.94;4955679;28;20058;-77
2023/07/18 07:43:32;;;;;;;8.70;3.72;;;;;;;27.54;47.37;101240.59;4955835;29;20093;-77
2023/07/18 07:46:00;;;;;;;7.32;3.67;;;;;;;28.04;47.65;101235.69;4956284;29;20054;-78
2023/07/18 07:48:27;;;;;;;7.15;3.70;;;;;;;27.18;47.67;101234.84;4955308;29;20474;-77
2023/07/18 07:50:54;;;;;;;6.10;3.67;;;;;;;27.87;47.02;101245.81;4956581;28;20109;-77
2023/07/18 07:53:23;;;;;;;5.78;3.92;;;;;;;28.48;47.23;101227.41;4961917;28;20055;-78
2023/07/18 07:55:49;;;;;;;9.73;3.60;;;;;;;28.35;45.78;101212.56;4967145;28;20047;-77
2023/07/18 07:58:16;;;;;;;7.63;4.05;;;;;;;29.18;45.17;101218.03;4971842;28;20102;-78
2023/07/18 08:00:43;;;;;;;7.72;3.35;;;;;;;25.82;49.05;101218.41;4955939;28;20594;-78
2023/07/18 08:03:09;;;;;;;9.05;3.70;;;;;;;25.29;50.73;101232.97;4955995;28;20134;-78
2023/07/18 08:05:36;;;;;;;13.18;4.15;;;;;;;26.33;50.70;101240.69;4955644;29;20058;-78
2023/07/18 08:08:04;;;;;;;9.95;3.83;;;;;;;28.44;46.62;101226.31;4966514;28;20075;-77
2023/07/18 08:10:32;;;;;;;6.82;3.58;;;;;;;29.59;44.23;101237.03;4955095;29;20102;-77
2023/07/18 08:12:59;;;;;;;8.13;3.83;;;;;;;29.59;43.98;101234.31;4964427;28;20051;-77
2023/07/18 08:15:27;;;;;;;9.18;3.90;;;;;;;29.35;44.71;101226.69;4965322;28;20047;-77
2023/07/18 08:17:54;;;;;;;8.02;4.05;;;;;;;29.23;45.25;101242.31;4956186;29;20118;-77
2023/07/18 08:20:21;;;;;;;7.68;3.33;;;;;;;29.60;44.88;101217.06;4955334;28;20460;-78
2023/07/18 08:22:48;;;;;;;7.72;3.70;;;;;;;30.43;44.14;101238.34;4955459;28;20102;-76
2023/07/18 08:25:15;;;;;;;8.02;3.63;;;;;;;30.32;43.27;101215.94;4956229;28;20077;-78
2023/07/18 08:27:57;;;;;;;6.28;4.10;;;;;;;28.41;44.60;101191.81;4957562;28;20546;-77
2023/07/18 08:30:24;;;;;;;6.57;3.47;;;;;;;29.11;46.04;101230.97;4962398;28;20058;-77
2023/07/18 08:32:51;;;;;;;5.28;3.33;;;;;;;29.08;45.17;101207.22;4960504;28;20139;-77
2023/07/18 08:35:17;;;;;;;9.05;3.80;;;;;;;29.83;44.88;101230.00;4956720;28;20557;-77
2023/07/18 08:37:44;;;;;;;10.32;3.85;;;;;;;30.15;43.67;101193.88;4956637;28;20140;-78
2023/07/18 08:40:12;;;;;;;6.90;3.60;;;;;;;28.08;46.17;101204.53;4963163;28;20055;-78
2023/07/18 08:42:39;;;;;;;7.18;3.47;;;;;;;27.09;47.23;101201.44;4955481;28;20586;-77
2023/07/18 08:45:10;;;;;;;5.47;3.60;;;;;;;26.21;48.63;101199.69;4954935;28;20133;-78
2023/07/18 08:47:38;;;;;;;8.40;3.70;;;;;;;26.01;50.59;101213.59;4955470;28;20055;-78
2023/07/18 08:50:05;;;;;;;8.07;3.85;;;;;;;26.32;49.93;101212.25;4955795;28;20294;-78
2023/07/18 08:52:32;;;;;;;6.68;4.00;;;;;;;26.33;49.64;101213.88;4954445;28;20074;-78
2023/07/18 08:54:59;;;;;;;7.93;3.80;;;;;;;25.99;50.58;101197.78;4954701;28;20130;-77
2023/07/18 08:57:26;;;;;;;9.70;4.13;;;;;;;26.68;51.00;101200.13;4954749;28;20111;-77
2023/07/18 08:59:54;;;;;;;9.05;4.07;;;;;;;27.04;48.89;101190.63;4963896;28;20089;-77
2023/07/18 09:02:22;;;;;;;9.50;4.25;;;;;;;27.47;48.57;101186.22;4961276;28;20143;-78
2023/07/18 09:04:50;;;;;;;8.95;4.75;;;;;;;27.26;48.52;101175.31;4954505;28;20071;-77
2023/07/18 09:07:19;;;;;;;8.40;3.80;;;;;;;27.32;48.74;101179.66;4954484;28;20069;-78
2023/07/18 09:09:47;;;;;;;8.52;4.00;;;;;;;27.63;48.40;101169.22;4962014;28;20047;-78
2023/07/18 09:12:14;;;;;;;6.63;4.20;;;;;;;27.17;47.61;101151.81;4961984;28;20058;-77
2023/07/18 09:14:41;;;;;;;7.55;3.75;;;;;;;27.37;49.50;101166.28;4953978;28;20055;-77
2023/07/18 09:17:09;;;;;;;7.53;3.75;;;;;;;27.59;48.25;101146.59;4962296;28;20531;-78
2023/07/18 09:19:39;;;;;;;7.30;3.90;;;;;;;27.54;47.89;101147.31;4961844;28;20555;-77
2023/07/18 09:22:08;;;;;;;7.45;3.67;;;;;;;27.29;46.67;101136.38;4953966;28;20519;-77
2023/07/18 09:24:38;;;;;;;10.43;3.75;;;;;;;27.82;45.70;101127.44;4954389;29;20200;-78
2023/07/18 09:27:06;;;;;;;9.23;3.80;;;;;;;27.51;46.58;101130.91;4953764;28;20079;-76
2023/07/18 09:29:33;;;;;;;8.02;3.80;;;;;;;27.23;49.22;101153.50;4953932;29;20491;-76
2023/07/18 09:32:00;;;;;;;8.63;4.72;;;;;;;27.44;49.45;101150.75;4954028;29;20084;-78
2023/07/18 09:34:29;;;;;;;8.55;4.15;;;;;;;27.41;48.37;101148.56;4954452;28;20054;-78
2023/07/18 09:36:59;;;;;;;6.45;4.05;;;;;;;26.90;49.50;101144.56;4954814;28;20486;-77
2023/07/18 09:39:26;;;;;;;7.47;4.32;;;;;;;25.92;50.11;101148.88;4953986;28;20074;-77
2023/07/18 09:41:53;;;;;;;9.52;4.60;;;;;;;25.58;50.47;101152.56;4961596;28;20050;-77
2023/07/18 09:44:20;;;;;;;8.75;4.25;;;;;;;25.22;51.61;101159.16;4954298;28;20073;-78
2023/07/18 09:46:47;;;;;;;8.18;4.60;;;;;;;25.21;51.78;101162.91;4955750;28;20055;-77
2023/07/18 09:49:14;;;;;;;8.93;4.68;;;;;;;25.16;51.97;101152.91;4962512;28;20102;-77
2023/07/18 09:51:47;;;;;;;8.30;4.30;;;;;;;25.47;51.46;101154.28;4969483;28;20051;-77
2023/07/18 09:54:16;;;;;;;11.40;4.55;;;;;;;26.62;50.61;101152.78;4959040;28;20079;-78
2023/07/18 09:56:45;;;;;;;9.10;4.57;;;;;;;27.14;50.53;101161.19;4965799;28;20050;-78
2023/07/18 09:59:12;;;;;;;9.27;4.15;;;;;;;26.86;48.88;101140.75;4950718;28;20492;-78
2023/07/18 10:01:38;;;;;;;10.20;4.50;;;;;;;26.88;50.51;101153.91;4958170;28;20062;-77
2023/07/18 10:04:06;;;;;;;8.50;3.80;;;;;;;25.94;51.03;101154.81;4965705;28;20498;-78
2023/07/18 10:06:34;;;;;;;6.78;3.40;;;;;;;25.59;50.73;101138.09;4958796;29;20444;-78
2023/07/18 10:09:03;;;;;;;10.48;3.80;;;;;;;25.73;51.27;101150.16;4957605;28;20051;-77
2023/07/18 10:11:31;;;;;;;10.20;3.60;;;;;;;25.49;51.29;101137.97;4957631;28;20055;-78
2023/07/18 10:14:16;;;;;;;4.68;3.85;;;;;;;24.85;51.60;101137.28;4959827;28;20070;-77
2023/07/18 10:16:43;;;;;;;6.00;3.90;;;;;;;24.90;52.07;101140.88;4961952;28;20097;-77
2023/07/18 10:19:18;;;;;;;8.93;3.58;;;;;;;24.96;51.96;101139.16;4953901;28;20046;-77
2023/07/18 10:21:47;;;;;;;6.28;3.83;;;;;;;25.10;51.19;101130.56;4963340;28;20051;-76
2023/07/18 10:24:28;;;;;;;8.35;3.75;;;;;;;25.31;52.54;101131.75;4964394;28;20046;-78
2023/07/18 10:27:00;;;;;;;5.90;3.60;;;;;;;25.82;50.75;101103.13;4968389;28;20711;-78
2023/07/18 10:29:31;;;;;;;8.55;3.97;;;;;;;26.22;50.28;101105.56;4971399;28;20075;-79
2023/07/18 10:31:58;;;;;;;7.07;4.73;;;;;;;26.10;49.22;101097.63;4962379;28;20101;-78
2023/07/18 10:34:25;;;;;;;5.97;3.42;;;;;;;25.79;49.27;101092.91;4962821;28;20299;-75
2023/07/18 10:36:56;;;;;;;8.85;3.78;;;;;;;26.25;50.41;101105.06;4958489;28;20491;-78
2023/07/18 10:39:37;;;;;;;6.53;3.95;;;;;;;26.49;50.26;101099.47;4964568;28;20055;-79
2023/07/18 10:42:08;;;;;;;8.15;4.20;;;;;;;26.36;49.35;101092.63;4956121;28;20441;-76
2023/07/18 10:44:36;;;;;;;9.63;3.47;;;;;;;26.95;48.72;101087.38;4956669;28;20122;-77
2023/07/18 10:47:12;;;;;;;6.10;3.33;;;;;;;27.42;48.26;101077.63;4966877;28;20054;-77
2023/07/18 10:49:39;;;;;;;6.28;3.72;;;;;;;27.37;48.32;101074.91;4975628;28;20047;-78
2023/07/18 10:52:07;;;;;;;6.90;4.00;;;;;;;26.85;48.01;101076.56;4960359;28;20086;-78
2023/07/18 10:54:33;;;;;;;9.13;3.58;;;;;;;26.41;48.32;101065.88;4961665;28;20082;-76
2023/07/18 10:57:00;;;;;;;5.65;3.67;;;;;;;26.65;49.19;101069.88;4956525;28;20059;-77
2023/07/18 10:59:28;;;;;;;7.43;3.50;;;;;;;26.99;49.69;101083.97;4956011;29;20047;-78
2023/07/18 11:01:55;;;;;;;7.35;4.03;;;;;;;27.16;47.90;101073.13;4956091;28;20134;-77
2023/07/18 11:04:23;;;;;;;6.22;3.80;;;;;;;27.12;46.67;101061.25;4957935;28;20150;-76
2023/07/18 11:06:51;;;;;;;8.27;3.90;;;;;;;26.52;48.56;101062.22;4965017;28;20127;-77
2023/07/18 11:09:17;;;;;;;6.57;4.20;;;;;;;27.47;48.54;101070.66;4967609;28;20138;-77
2023/07/18 11:11:44;;;;;;;7.07;3.97;;;;;;;27.64;45.79;101049.84;4959356;28;20478;-77
2023/07/18 11:14:11;;;;;;;9.18;3.70;;;;;;;28.13;46.05;101046.91;4948045;28;20051;-76
2023/07/18 11:16:39;;;;;;;6.65;3.95;;;;;;;28.40;45.70;101034.09;4956312;28;20134;-76
2023/07/18 11:19:07;;;;;;;8.27;3.80;;;;;;;28.26;45.32;101016.84;4955707;28;20055;-77
2023/07/18 11:21:35;;;;;;;5.55;3.65;;;;;;;27.94;45.56;101008.88;4963586;28;20506;-77
2023/07/18 11:24:02;;;;;;;5.45;3.90;;;;;;;27.55;46.06;101008.38;4958717;28;20055;-76
2023/07/18 11:26:28;;;;;;;5.25;3.78;;;;;;;28.30;46.20;101012.56;4964763;28;20066;-79
2023/07/18 11:28:56;;;;;;;8.32;3.92;;;;;;;27.79;46.96;101004.25;4969188;28;20130;-78
2023/07/18 11:31:24;;;;;;;8.63;4.20;;;;;;;27.79;46.12;101006.13;4963888;28;20131;-79
2023/07/18 11:33:53;;;;;;;6.88;3.83;;;;;;;27.69;45.61;101001.50;4965596;28;20547;-77
2023/07/18 11:36:21;;;;;;;8.00;4.00;;;;;;;27.51;45.76;101007.25;4960664;28;20126;-77
2023/07/18 11:38:49;;;;;;;9.85;4.05;;;;;;;27.99;46.01;101015.09;4959315;28;20093;-78
2023/07/18 11:41:31;;;;;;;9.85;3.72;;;;;;;27.86;46.99;101026.34;4964363;28;20134;-78
2023/07/18 11:43:58;;;;;;;6.57;3.72;;;;;;;27.71;46.77;101016.31;4955674;28;20075;-78
2023/07/18 11:46:35;;;;;;;5.45;3.60;;;;;;;28.13;46.32;101015.41;4969448;28;20562;-77
2023/07/18 11:49:03;;;;;;;5.05;3.75;;;;;;;26.87;47.53;100992.00;4964911;28;20530;-78
2023/07/18 11:51:31;;;;;;;8.85;4.28;;;;;;;26.87;48.11;100997.38;4956215;28;20143;-79
2023/07/18 11:53:58;;;;;;;7.20;3.92;;;;;;;27.71;46.92;100999.34;4964508;28;20050;-78
2023/07/18 11:56:25;;;;;;;6.40;3.72;;;;;;;27.85;47.18;100989.75;4955733;28;20061;-78